sensor_id;sensor_type;location;lat;lon;timestamp;temperature;humidity
27540;DHT22;15906;52.046;4.724;2022-07-10T00:01:48;15.80;99.90
27540;DHT22;15906;52.046;4.724;2022-07-10T00:04:14;15.80;99.90
27540;DHT22;15906;52.046;4.724;2022-07-10T00:06:39;15.80;99.90
27540;DHT22;15906;52.046;4.724;2022-07-10T00:09:07;15.80;99.90
27540;DHT22;15906;52.046;4.724;2022-07-10T00:11:33;15.80;99.90
27540;DHT22;15906;52.046;4.724;2022-07-10T00:13:58;15.70;99.90
27540;DHT22;15906;52.046;4.724;2022-07-10T00:16:24;15.70;99.90
27540;DHT22;15906;52.046;4.724;2022-07-10T00:18:50;15.70;99.90
27540;DHT22;15906;52.046;4.724;2022-07-10T00:21:16;15.70;99.90
27540;DHT22;15906;52.046;4.724;2022-07-10T00:23:42;15.60;99.90
27540;DHT22;15906;52.046;4.724;2022-07-10T00:26:08;15.50;99.90
27540;DHT22;15906;52.046;4.724;2022-07-10T00:28:34;15.50;99.90
27540;DHT22;15906;52.046;4.724;2022-07-10T00:31:00;15.40;99.90
27540;DHT22;15906;52.046;4.724;2022-07-10T00:33:25;15.40;99.90
27540;DHT22;15906;52.046;4.724;2022-07-10T00:35:51;15.30;99.90
27540;DHT22;15906;52.046;4.724;2022-07-10T00:38:16;15.30;99.90
27540;DHT22;15906;52.046;4.724;2022-07-10T00:40:42;15.30;99.90
27540;DHT22;15906;52.046;4.724;2022-07-10T00:43:11;15.30;99.90
27540;DHT22;15906;52.046;4.724;2022-07-10T00:45:36;15.20;99.90
27540;DHT22;15906;52.046;4.724;2022-07-10T00:48:02;15.20;99.90
27540;DHT22;15906;52.046;4.724;2022-07-10T00:50:28;15.20;99.90
27540;DHT22;15906;52.046;4.724;2022-07-10T00:52:54;15.10;99.90
27540;DHT22;15906;52.046;4.724;2022-07-10T00:55:20;15.20;99.90
27540;DHT22;15906;52.046;4.724;2022-07-10T00:57:47;15.10;99.90
27540;DHT22;15906;52.046;4.724;2022-07-10T01:00:13;15.10;99.90
27540;DHT22;15906;52.046;4.724;2022-07-10T01:02:42;15.10;99.90
27540;DHT22;15906;52.046;4.724;2022-07-10T01:05:08;15.10;99.90
27540;DHT22;15906;52.046;4.724;2022-07-10T01:07:33;15.00;99.90
27540;DHT22;15906;52.046;4.724;2022-07-10T01:09:59;15.00;99.90
27540;DHT22;15906;52.046;4.724;2022-07-10T01:12:26;15.00;99.90
27540;DHT22;15906;52.046;4.724;2022-07-10T01:14:52;14.90;99.90
27540;DHT22;15906;52.046;4.724;2022-07-10T01:17:18;14.90;99.90
27540;DHT22;15906;52.046;4.724;2022-07-10T01:19:44;14.90;99.90
27540;DHT22;15906;52.046;4.724;2022-07-10T01:22:10;14.90;99.90
27540;DHT22;15906;52.046;4.724;2022-07-10T01:24:36;14.80;99.90
27540;DHT22;15906;52.046;4.724;2022-07-10T01:27:01;14.80;99.90
27540;DHT22;15906;52.046;4.724;2022-07-10T01:29:29;14.80;99.90
27540;DHT22;15906;52.046;4.724;2022-07-10T01:31:54;14.80;99.90
27540;DHT22;15906;52.046;4.724;2022-07-10T01:34:20;14.80;99.90
27540;DHT22;15906;52.046;4.724;2022-07-10T01:36:45;14.70;99.90
27540;DHT22;15906;52.046;4.724;2022-07-10T01:39:11;14.70;99.90
27540;DHT22;15906;52.046;4.724;2022-07-10T01:41:37;14.70;99.90
27540;DHT22;15906;52.046;4.724;2022-07-10T01:44:03;14.70;99.90
27540;DHT22;15906;52.046;4.724;2022-07-10T01:46:28;14.70;99.90
27540;DHT22;15906;52.046;4.724;2022-07-10T01:48:54;14.70;99.90
27540;DHT22;15906;52.046;4.724;2022-07-10T01:51:20;14.60;99.90
27540;DHT22;15906;52.046;4.724;2022-07-10T01:53:46;14.50;99.90
27540;DHT22;15906;52.046;4.724;2022-07-10T01:56:13;14.50;99.90
27540;DHT22;15906;52.046;4.724;2022-07-10T01:58:38;14.50;99.90
27540;DHT22;15906;52.046;4.724;2022-07-10T02:01:05;14.50;99.90
27540;DHT22;15906;52.046;4.724;2022-07-10T02:03:31;14.50;99.90
27540;DHT22;15906;52.046;4.724;2022-07-10T02:06:15;14.50;99.90
27540;DHT22;15906;52.046;4.724;2022-07-10T02:08:41;14.40;99.90
27540;DHT22;15906;52.046;4.724;2022-07-10T02:11:06;14.40;99.90
27540;DHT22;15906;52.046;4.724;2022-07-10T02:13:32;14.40;99.90
27540;DHT22;15906;52.046;4.724;2022-07-10T02:15:58;14.40;99.90
27540;DHT22;15906;52.046;4.724;2022-07-10T02:18:24;14.30;99.90
27540;DHT22;15906;52.046;4.724;2022-07-10T02:20:51;14.40;99.90
27540;DHT22;15906;52.046;4.724;2022-07-10T02:23:16;14.40;99.90
27540;DHT22;15906;52.046;4.724;2022-07-10T02:25:42;14.40;99.90
27540;DHT22;15906;52.046;4.724;2022-07-10T02:28:09;14.40;99.90
27540;DHT22;15906;52.046;4.724;2022-07-10T02:30:35;14.40;99.90
27540;DHT22;15906;52.046;4.724;2022-07-10T02:33:00;14.50;99.90
27540;DHT22;15906;52.046;4.724;2022-07-10T02:35:26;14.50;99.90
27540;DHT22;15906;52.046;4.724;2022-07-10T02:37:52;14.60;99.90
27540;DHT22;15906;52.046;4.724;2022-07-10T02:40:17;14.60;99.90
27540;DHT22;15906;52.046;4.724;2022-07-10T02:42:43;14.60;99.90
27540;DHT22;15906;52.046;4.724;2022-07-10T02:45:08;14.60;99.90
27540;DHT22;15906;52.046;4.724;2022-07-10T02:47:34;14.70;99.90
27540;DHT22;15906;52.046;4.724;2022-07-10T02:50:00;14.70;99.90
27540;DHT22;15906;52.046;4.724;2022-07-10T02:52:25;14.70;99.90
27540;DHT22;15906;52.046;4.724;2022-07-10T02:54:51;14.70;99.90
27540;DHT22;15906;52.046;4.724;2022-07-10T02:57:17;14.70;99.90
27540;DHT22;15906;52.046;4.724;2022-07-10T02:59:43;14.80;99.90
27540;DHT22;15906;52.046;4.724;2022-07-10T03:02:08;14.90;99.90
27540;DHT22;15906;52.046;4.724;2022-07-10T03:04:34;14.80;99.90
27540;DHT22;15906;52.046;4.724;2022-07-10T03:07:00;14.90;99.90
27540;DHT22;15906;52.046;4.724;2022-07-10T03:09:26;14.90;99.90
27540;DHT22;15906;52.046;4.724;2022-07-10T03:11:52;14.90;99.90
27540;DHT22;15906;52.046;4.724;2022-07-10T03:14:17;14.90;99.90
27540;DHT22;15906;52.046;4.724;2022-07-10T03:16:43;14.90;99.90
27540;DHT22;15906;52.046;4.724;2022-07-10T03:19:09;14.90;99.90
27540;DHT22;15906;52.046;4.724;2022-07-10T03:21:34;15.00;99.90
27540;DHT22;15906;52.046;4.724;2022-07-10T03:24:00;15.00;99.90
27540;DHT22;15906;52.046;4.724;2022-07-10T03:26:25;15.00;99.90
27540;DHT22;15906;52.046;4.724;2022-07-10T03:28:52;15.00;99.90
27540;DHT22;15906;52.046;4.724;2022-07-10T03:31:17;15.00;99.90
27540;DHT22;15906;52.046;4.724;2022-07-10T03:33:42;15.10;99.90
27540;DHT22;15906;52.046;4.724;2022-07-10T03:36:08;15.10;99.90
27540;DHT22;15906;52.046;4.724;2022-07-10T03:38:34;15.00;99.90
27540;DHT22;15906;52.046;4.724;2022-07-10T03:40:59;15.10;99.90
27540;DHT22;15906;52.046;4.724;2022-07-10T03:43:25;15.10;99.90
27540;DHT22;15906;52.046;4.724;2022-07-10T03:45:51;15.10;99.90
27540;DHT22;15906;52.046;4.724;2022-07-10T03:48:17;15.20;99.90
27540;DHT22;15906;52.046;4.724;2022-07-10T03:50:42;15.00;99.90
27540;DHT22;15906;52.046;4.724;2022-07-10T03:53:08;15.10;99.90
27540;DHT22;15906;52.046;4.724;2022-07-10T03:55:34;15.10;99.90
27540;DHT22;15906;52.046;4.724;2022-07-10T03:57:59;15.20;99.90
27540;DHT22;15906;52.046;4.724;2022-07-10T04:00:29;15.30;99.90
27540;DHT22;15906;52.046;4.724;2022-07-10T04:03:02;15.30;99.90
27540;DHT22;15906;52.046;4.724;2022-07-10T04:05:28;15.30;99.90
27540;DHT22;15906;52.046;4.724;2022-07-10T04:07:54;15.30;99.90
27540;DHT22;15906;52.046;4.724;2022-07-10T04:10:22;15.50;99.90
27540;DHT22;15906;52.046;4.724;2022-07-10T04:12:48;15.40;99.90
27540;DHT22;15906;52.046;4.724;2022-07-10T04:15:14;15.40;99.90
27540;DHT22;15906;52.046;4.724;2022-07-10T04:17:39;15.40;99.90
27540;DHT22;15906;52.046;4.724;2022-07-10T04:20:05;15.40;99.90
27540;DHT22;15906;52.046;4.724;2022-07-10T04:22:31;15.50;99.90
27540;DHT22;15906;52.046;4.724;2022-07-10T04:24:56;15.50;99.90
27540;DHT22;15906;52.046;4.724;2022-07-10T04:27:22;15.50;99.90
27540;DHT22;15906;52.046;4.724;2022-07-10T04:29:48;15.50;99.90
27540;DHT22;15906;52.046;4.724;2022-07-10T04:32:15;15.50;99.90
27540;DHT22;15906;52.046;4.724;2022-07-10T04:34:41;15.50;99.90
27540;DHT22;15906;52.046;4.724;2022-07-10T04:37:06;15.50;99.90
27540;DHT22;15906;52.046;4.724;2022-07-10T04:39:38;15.60;99.90
27540;DHT22;15906;52.046;4.724;2022-07-10T04:42:06;15.70;99.90
27540;DHT22;15906;52.046;4.724;2022-07-10T04:44:33;15.80;99.90
27540;DHT22;15906;52.046;4.724;2022-07-10T04:46:58;15.80;99.90
27540;DHT22;15906;52.046;4.724;2022-07-10T04:49:24;15.80;99.90
27540;DHT22;15906;52.046;4.724;2022-07-10T04:51:50;15.80;99.90
27540;DHT22;15906;52.046;4.724;2022-07-10T04:54:15;15.80;99.90
27540;DHT22;15906;52.046;4.724;2022-07-10T04:56:41;15.80;99.90
27540;DHT22;15906;52.046;4.724;2022-07-10T04:59:07;15.80;99.90
27540;DHT22;15906;52.046;4.724;2022-07-10T05:01:33;15.90;99.90
27540;DHT22;15906;52.046;4.724;2022-07-10T05:03:58;15.80;99.90
27540;DHT22;15906;52.046;4.724;2022-07-10T05:06:24;15.80;99.90
27540;DHT22;15906;52.046;4.724;2022-07-10T05:08:49;15.80;99.90
27540;DHT22;15906;52.046;4.724;2022-07-10T05:11:15;15.80;99.90
27540;DHT22;15906;52.046;4.724;2022-07-10T05:13:41;15.80;99.90
27540;DHT22;15906;52.046;4.724;2022-07-10T05:16:10;15.90;99.90
27540;DHT22;15906;52.046;4.724;2022-07-10T05:18:36;15.90;99.90
27540;DHT22;15906;52.046;4.724;2022-07-10T05:21:01;15.80;99.90
27540;DHT22;15906;52.046;4.724;2022-07-10T05:23:27;15.80;99.90
27540;DHT22;15906;52.046;4.724;2022-07-10T05:25:52;15.80;99.90
27540;DHT22;15906;52.046;4.724;2022-07-10T05:28:18;15.70;99.90
27540;DHT22;15906;52.046;4.724;2022-07-10T05:30:43;16.00;99.90
27540;DHT22;15906;52.046;4.724;2022-07-10T05:33:09;16.00;99.90
27540;DHT22;15906;52.046;4.724;2022-07-10T05:35:35;16.10;99.90
27540;DHT22;15906;52.046;4.724;2022-07-10T05:38:01;16.10;99.90
27540;DHT22;15906;52.046;4.724;2022-07-10T05:40:26;16.20;99.90
27540;DHT22;15906;52.046;4.724;2022-07-10T05:42:52;16.30;99.90
27540;DHT22;15906;52.046;4.724;2022-07-10T05:45:18;16.40;99.90
27540;DHT22;15906;52.046;4.724;2022-07-10T05:47:44;16.40;99.90
27540;DHT22;15906;52.046;4.724;2022-07-10T05:50:10;16.60;99.90
27540;DHT22;15906;52.046;4.724;2022-07-10T05:52:36;16.70;99.90
27540;DHT22;15906;52.046;4.724;2022-07-10T05:55:03;16.70;99.90
27540;DHT22;15906;52.046;4.724;2022-07-10T05:57:30;16.60;99.90
27540;DHT22;15906;52.046;4.724;2022-07-10T05:59:56;16.60;99.90
27540;DHT22;15906;52.046;4.724;2022-07-10T06:02:22;16.60;99.90
27540;DHT22;15906;52.046;4.724;2022-07-10T06:04:47;16.60;99.90
27540;DHT22;15906;52.046;4.724;2022-07-10T06:07:13;16.60;99.90
27540;DHT22;15906;52.046;4.724;2022-07-10T06:09:38;16.70;99.90
27540;DHT22;15906;52.046;4.724;2022-07-10T06:12:04;16.70;99.90
27540;DHT22;15906;52.046;4.724;2022-07-10T06:14:30;16.80;99.90
27540;DHT22;15906;52.046;4.724;2022-07-10T06:16:55;16.70;99.90
27540;DHT22;15906;52.046;4.724;2022-07-10T06:19:21;16.60;99.90
27540;DHT22;15906;52.046;4.724;2022-07-10T06:21:46;16.70;99.90
27540;DHT22;15906;52.046;4.724;2022-07-10T06:24:12;16.80;99.90
27540;DHT22;15906;52.046;4.724;2022-07-10T06:26:37;16.80;99.90
27540;DHT22;15906;52.046;4.724;2022-07-10T06:29:03;16.90;99.90
27540;DHT22;15906;52.046;4.724;2022-07-10T06:31:28;16.90;99.90
27540;DHT22;15906;52.046;4.724;2022-07-10T06:33:54;16.90;99.90
27540;DHT22;15906;52.046;4.724;2022-07-10T06:36:20;16.90;99.90
27540;DHT22;15906;52.046;4.724;2022-07-10T06:38:45;17.00;99.90
27540;DHT22;15906;52.046;4.724;2022-07-10T06:41:11;17.20;99.90
27540;DHT22;15906;52.046;4.724;2022-07-10T06:43:36;17.30;99.90
27540;DHT22;15906;52.046;4.724;2022-07-10T06:46:02;17.50;99.90
27540;DHT22;15906;52.046;4.724;2022-07-10T06:48:27;17.40;99.90
27540;DHT22;15906;52.046;4.724;2022-07-10T06:50:53;17.50;99.90
27540;DHT22;15906;52.046;4.724;2022-07-10T06:53:19;17.60;99.90
27540;DHT22;15906;52.046;4.724;2022-07-10T06:55:50;17.60;99.90
27540;DHT22;15906;52.046;4.724;2022-07-10T06:58:15;17.50;99.90
27540;DHT22;15906;52.046;4.724;2022-07-10T07:00:41;17.40;99.90
27540;DHT22;15906;52.046;4.724;2022-07-10T07:03:06;17.50;99.90
27540;DHT22;15906;52.046;4.724;2022-07-10T07:05:32;17.60;99.90
27540;DHT22;15906;52.046;4.724;2022-07-10T07:07:58;17.60;99.90
27540;DHT22;15906;52.046;4.724;2022-07-10T07:10:23;17.70;99.90
27540;DHT22;15906;52.046;4.724;2022-07-10T07:12:49;17.70;99.90
27540;DHT22;15906;52.046;4.724;2022-07-10T07:15:15;17.70;99.90
27540;DHT22;15906;52.046;4.724;2022-07-10T07:17:42;17.70;99.90
27540;DHT22;15906;52.046;4.724;2022-07-10T07:20:35;17.80;99.90
27540;DHT22;15906;52.046;4.724;2022-07-10T07:23:21;17.70;99.90
27540;DHT22;15906;52.046;4.724;2022-07-10T07:25:46;17.70;99.90
27540;DHT22;15906;52.046;4.724;2022-07-10T07:28:13;17.80;99.90
27540;DHT22;15906;52.046;4.724;2022-07-10T07:30:42;18.00;99.90
27540;DHT22;15906;52.046;4.724;2022-07-10T07:33:07;17.90;99.90
27540;DHT22;15906;52.046;4.724;2022-07-10T07:35:33;17.90;99.90
27540;DHT22;15906;52.046;4.724;2022-07-10T07:38:01;17.90;99.90
27540;DHT22;15906;52.046;4.724;2022-07-10T07:40:26;17.90;99.90
27540;DHT22;15906;52.046;4.724;2022-07-10T07:42:53;17.90;99.90
27540;DHT22;15906;52.046;4.724;2022-07-10T07:45:20;17.90;99.90
27540;DHT22;15906;52.046;4.724;2022-07-10T07:47:49;17.80;99.90
27540;DHT22;15906;52.046;4.724;2022-07-10T07:50:20;17.90;99.90
27540;DHT22;15906;52.046;4.724;2022-07-10T07:52:46;17.90;99.90
27540;DHT22;15906;52.046;4.724;2022-07-10T07:55:13;17.80;99.90
27540;DHT22;15906;52.046;4.724;2022-07-10T07:57:40;17.70;99.90
27540;DHT22;15906;52.046;4.724;2022-07-10T08:00:07;17.80;99.90
27540;DHT22;15906;52.046;4.724;2022-07-10T08:02:34;17.80;99.90
27540;DHT22;15906;52.046;4.724;2022-07-10T08:04:59;17.90;99.90
27540;DHT22;15906;52.046;4.724;2022-07-10T08:07:36;18.00;99.90
27540;DHT22;15906;52.046;4.724;2022-07-10T08:10:03;18.10;99.90
27540;DHT22;15906;52.046;4.724;2022-07-10T08:12:29;18.10;99.90
27540;DHT22;15906;52.046;4.724;2022-07-10T08:14:54;18.20;99.90
27540;DHT22;15906;52.046;4.724;2022-07-10T08:17:20;18.10;99.90
27540;DHT22;15906;52.046;4.724;2022-07-10T08:19:47;18.10;99.90
27540;DHT22;15906;52.046;4.724;2022-07-10T08:22:12;18.20;99.90
27540;DHT22;15906;52.046;4.724;2022-07-10T08:24:38;18.40;99.90
27540;DHT22;15906;52.046;4.724;2022-07-10T08:27:04;18.40;99.90
27540;DHT22;15906;52.046;4.724;2022-07-10T08:29:31;18.30;99.90
27540;DHT22;15906;52.046;4.724;2022-07-10T08:31:57;18.40;99.90
27540;DHT22;15906;52.046;4.724;2022-07-10T08:34:22;18.30;99.90
27540;DHT22;15906;52.046;4.724;2022-07-10T08:36:48;18.40;99.90
27540;DHT22;15906;52.046;4.724;2022-07-10T08:39:13;18.50;99.90
27540;DHT22;15906;52.046;4.724;2022-07-10T08:41:42;18.70;99.90
27540;DHT22;15906;52.046;4.724;2022-07-10T08:44:08;18.90;99.90
27540;DHT22;15906;52.046;4.724;2022-07-10T08:46:34;19.10;99.90
27540;DHT22;15906;52.046;4.724;2022-07-10T08:49:02;19.30;99.90
27540;DHT22;15906;52.046;4.724;2022-07-10T08:51:36;19.60;99.90
27540;DHT22;15906;52.046;4.724;2022-07-10T08:54:04;19.70;99.90
27540;DHT22;15906;52.046;4.724;2022-07-10T08:56:31;19.60;99.90
27540;DHT22;15906;52.046;4.724;2022-07-10T08:58:58;19.60;99.90
27540;DHT22;15906;52.046;4.724;2022-07-10T09:01:24;19.70;99.90
27540;DHT22;15906;52.046;4.724;2022-07-10T09:03:50;19.90;99.90
27540;DHT22;15906;52.046;4.724;2022-07-10T09:06:19;19.80;99.90
27540;DHT22;15906;52.046;4.724;2022-07-10T09:09:05;20.10;99.90
27540;DHT22;15906;52.046;4.724;2022-07-10T09:11:32;20.20;99.90
27540;DHT22;15906;52.046;4.724;2022-07-10T09:14:03;20.10;99.90
27540;DHT22;15906;52.046;4.724;2022-07-10T09:16:34;20.10;99.90
27540;DHT22;15906;52.046;4.724;2022-07-10T09:19:19;20.50;99.90
27540;DHT22;15906;52.046;4.724;2022-07-10T09:21:50;20.50;99.90
27540;DHT22;15906;52.046;4.724;2022-07-10T09:24:16;20.70;99.90
27540;DHT22;15906;52.046;4.724;2022-07-10T09:27:00;21.00;99.90
27540;DHT22;15906;52.046;4.724;2022-07-10T09:29:28;21.10;99.90
27540;DHT22;15906;52.046;4.724;2022-07-10T09:31:56;21.00;99.90
27540;DHT22;15906;52.046;4.724;2022-07-10T09:40:00;21.10;99.90
27540;DHT22;15906;52.046;4.724;2022-07-10T09:42:36;21.20;99.90
27540;DHT22;15906;52.046;4.724;2022-07-10T09:47:41;20.90;99.90
27540;DHT22;15906;52.046;4.724;2022-07-10T09:50:20;20.90;99.90
27540;DHT22;15906;52.046;4.724;2022-07-10T09:52:58;21.10;99.90
27540;DHT22;15906;52.046;4.724;2022-07-10T09:55:30;21.00;99.90
27540;DHT22;15906;52.046;4.724;2022-07-10T09:57:57;21.10;99.90
27540;DHT22;15906;52.046;4.724;2022-07-10T10:00:26;21.00;99.90
27540;DHT22;15906;52.046;4.724;2022-07-10T10:02:56;21.20;99.90
27540;DHT22;15906;52.046;4.724;2022-07-10T10:05:28;21.30;99.90
27540;DHT22;15906;52.046;4.724;2022-07-10T10:07:55;21.20;99.90
27540;DHT22;15906;52.046;4.724;2022-07-10T10:10:22;21.40;99.90
27540;DHT22;15906;52.046;4.724;2022-07-10T10:12:52;21.90;99.90
27540;DHT22;15906;52.046;4.724;2022-07-10T10:15:20;22.20;99.90
27540;DHT22;15906;52.046;4.724;2022-07-10T10:17:49;22.60;99.90
27540;DHT22;15906;52.046;4.724;2022-07-10T10:20:15;22.40;99.90
27540;DHT22;15906;52.046;4.724;2022-07-10T10:23:01;21.90;99.90
27540;DHT22;15906;52.046;4.724;2022-07-10T10:25:28;21.90;99.90
27540;DHT22;15906;52.046;4.724;2022-07-10T10:27:58;22.10;99.90
27540;DHT22;15906;52.046;4.724;2022-07-10T10:30:24;22.30;99.90
27540;DHT22;15906;52.046;4.724;2022-07-10T10:32:50;22.40;99.90
27540;DHT22;15906;52.046;4.724;2022-07-10T10:35:42;22.20;99.90
27540;DHT22;15906;52.046;4.724;2022-07-10T10:38:08;22.20;99.90
27540;DHT22;15906;52.046;4.724;2022-07-10T10:40:34;22.60;99.90
27540;DHT22;15906;52.046;4.724;2022-07-10T10:43:24;22.80;99.90
27540;DHT22;15906;52.046;4.724;2022-07-10T10:45:50;22.90;99.90
27540;DHT22;15906;52.046;4.724;2022-07-10T10:48:17;22.40;99.90
27540;DHT22;15906;52.046;4.724;2022-07-10T10:50:51;22.40;99.90
27540;DHT22;15906;52.046;4.724;2022-07-10T10:53:24;22.30;99.90
27540;DHT22;15906;52.046;4.724;2022-07-10T10:58:36;21.90;99.90
27540;DHT22;15906;52.046;4.724;2022-07-10T11:01:28;22.10;99.90
27540;DHT22;15906;52.046;4.724;2022-07-10T11:09:33;22.50;99.90
27540;DHT22;15906;52.046;4.724;2022-07-10T11:11:59;22.40;99.90
27540;DHT22;15906;52.046;4.724;2022-07-10T11:14:26;22.80;99.90
27540;DHT22;15906;52.046;4.724;2022-07-10T11:16:54;22.90;99.90
27540;DHT22;15906;52.046;4.724;2022-07-10T11:19:30;22.90;99.90
27540;DHT22;15906;52.046;4.724;2022-07-10T11:25:03;22.90;99.90
27540;DHT22;15906;52.046;4.724;2022-07-10T11:30:43;23.00;99.90
27540;DHT22;15906;52.046;4.724;2022-07-10T11:33:08;23.20;99.90
27540;DHT22;15906;52.046;4.724;2022-07-10T11:35:34;23.40;99.90
27540;DHT22;15906;52.046;4.724;2022-07-10T11:38:00;23.60;99.90
27540;DHT22;15906;52.046;4.724;2022-07-10T11:40:26;23.70;99.90
27540;DHT22;15906;52.046;4.724;2022-07-10T11:42:53;23.70;99.90
27540;DHT22;15906;52.046;4.724;2022-07-10T11:45:29;23.60;99.90
27540;DHT22;15906;52.046;4.724;2022-07-10T11:47:55;23.40;99.90
27540;DHT22;15906;52.046;4.724;2022-07-10T11:50:21;23.60;99.90
27540;DHT22;15906;52.046;4.724;2022-07-10T11:52:47;23.60;99.90
27540;DHT22;15906;52.046;4.724;2022-07-10T11:55:17;23.80;99.90
27540;DHT22;15906;52.046;4.724;2022-07-10T11:57:43;23.90;99.90
27540;DHT22;15906;52.046;4.724;2022-07-10T12:00:28;23.80;99.90
27540;DHT22;15906;52.046;4.724;2022-07-10T12:02:55;24.10;99.90
27540;DHT22;15906;52.046;4.724;2022-07-10T12:05:35;24.40;99.90
27540;DHT22;15906;52.046;4.724;2022-07-10T12:08:02;24.60;99.90
27540;DHT22;15906;52.046;4.724;2022-07-10T12:10:29;24.50;99.90
27540;DHT22;15906;52.046;4.724;2022-07-10T12:13:11;24.60;99.90
27540;DHT22;15906;52.046;4.724;2022-07-10T12:15:41;24.00;99.90
27540;DHT22;15906;52.046;4.724;2022-07-10T12:18:09;23.90;99.90
27540;DHT22;15906;52.046;4.724;2022-07-10T12:20:35;24.10;99.90
27540;DHT22;15906;52.046;4.724;2022-07-10T12:23:03;24.30;99.90
27540;DHT22;15906;52.046;4.724;2022-07-10T12:25:29;24.10;99.90
27540;DHT22;15906;52.046;4.724;2022-07-10T12:27:58;24.10;99.90
27540;DHT22;15906;52.046;4.724;2022-07-10T12:30:43;24.30;99.90
27540;DHT22;15906;52.046;4.724;2022-07-10T12:33:20;24.20;99.90
27540;DHT22;15906;52.046;4.724;2022-07-10T12:35:56;24.30;99.90
27540;DHT22;15906;52.046;4.724;2022-07-10T12:38:29;24.20;99.90
27540;DHT22;15906;52.046;4.724;2022-07-10T12:41:10;24.10;99.90
27540;DHT22;15906;52.046;4.724;2022-07-10T12:43:37;24.00;99.90
27540;DHT22;15906;52.046;4.724;2022-07-10T12:46:23;23.90;99.90
27540;DHT22;15906;52.046;4.724;2022-07-10T12:51:36;24.00;99.90
27540;DHT22;15906;52.046;4.724;2022-07-10T12:54:07;23.80;99.90
27540;DHT22;15906;52.046;4.724;2022-07-10T12:56:35;23.40;99.90
27540;DHT22;15906;52.046;4.724;2022-07-10T12:59:12;23.60;99.90
27540;DHT22;15906;52.046;4.724;2022-07-10T13:01:43;23.70;99.90
27540;DHT22;15906;52.046;4.724;2022-07-10T13:04:11;23.90;99.90
27540;DHT22;15906;52.046;4.724;2022-07-10T13:06:41;24.00;99.90
27540;DHT22;15906;52.046;4.724;2022-07-10T13:09:23;23.90;99.90
27540;DHT22;15906;52.046;4.724;2022-07-10T13:11:53;23.90;99.90
27540;DHT22;15906;52.046;4.724;2022-07-10T13:14:20;23.90;99.90
27540;DHT22;15906;52.046;4.724;2022-07-10T13:16:46;24.00;99.90
27540;DHT22;15906;52.046;4.724;2022-07-10T13:19:16;24.00;99.90
27540;DHT22;15906;52.046;4.724;2022-07-10T13:21:42;23.90;99.90
27540;DHT22;15906;52.046;4.724;2022-07-10T13:24:07;23.90;99.90
27540;DHT22;15906;52.046;4.724;2022-07-10T13:26:45;23.80;99.90
27540;DHT22;15906;52.046;4.724;2022-07-10T13:29:12;23.60;99.90
27540;DHT22;15906;52.046;4.724;2022-07-10T13:31:47;23.50;99.90
27540;DHT22;15906;52.046;4.724;2022-07-10T13:34:13;23.40;99.90
27540;DHT22;15906;52.046;4.724;2022-07-10T13:36:39;23.30;99.90
27540;DHT22;15906;52.046;4.724;2022-07-10T13:39:04;23.30;99.90
27540;DHT22;15906;52.046;4.724;2022-07-10T13:41:30;23.30;99.90
27540;DHT22;15906;52.046;4.724;2022-07-10T13:43:55;23.40;99.90
27540;DHT22;15906;52.046;4.724;2022-07-10T13:46:21;23.50;99.90
27540;DHT22;15906;52.046;4.724;2022-07-10T13:48:47;23.50;99.90
27540;DHT22;15906;52.046;4.724;2022-07-10T13:51:13;23.50;99.90
27540;DHT22;15906;52.046;4.724;2022-07-10T13:53:38;23.40;99.90
27540;DHT22;15906;52.046;4.724;2022-07-10T13:56:05;23.50;99.90
27540;DHT22;15906;52.046;4.724;2022-07-10T13:58:32;23.00;99.90
27540;DHT22;15906;52.046;4.724;2022-07-10T14:00:57;23.30;99.90
27540;DHT22;15906;52.046;4.724;2022-07-10T14:03:25;23.20;99.90
27540;DHT22;15906;52.046;4.724;2022-07-10T14:05:50;23.10;99.90
27540;DHT22;15906;52.046;4.724;2022-07-10T14:08:16;23.40;99.90
27540;DHT22;15906;52.046;4.724;2022-07-10T14:10:42;23.30;99.90
27540;DHT22;15906;52.046;4.724;2022-07-10T14:13:08;23.20;99.90
27540;DHT22;15906;52.046;4.724;2022-07-10T14:15:35;23.20;99.90
27540;DHT22;15906;52.046;4.724;2022-07-10T14:18:02;23.30;99.90
27540;DHT22;15906;52.046;4.724;2022-07-10T14:20:30;23.10;99.90
27540;DHT22;15906;52.046;4.724;2022-07-10T14:23:16;23.10;99.90
27540;DHT22;15906;52.046;4.724;2022-07-10T14:25:41;23.20;99.90
27540;DHT22;15906;52.046;4.724;2022-07-10T14:28:07;23.30;99.90
27540;DHT22;15906;52.046;4.724;2022-07-10T14:30:32;23.20;99.90
27540;DHT22;15906;52.046;4.724;2022-07-10T14:32:58;22.90;99.90
27540;DHT22;15906;52.046;4.724;2022-07-10T14:35:24;22.70;99.90
27540;DHT22;15906;52.046;4.724;2022-07-10T14:37:49;22.70;99.90
27540;DHT22;15906;52.046;4.724;2022-07-10T14:40:15;22.50;99.90
27540;DHT22;15906;52.046;4.724;2022-07-10T14:42:41;22.80;99.90
27540;DHT22;15906;52.046;4.724;2022-07-10T14:45:07;23.00;99.90
27540;DHT22;15906;52.046;4.724;2022-07-10T14:47:32;23.10;99.90
27540;DHT22;15906;52.046;4.724;2022-07-10T14:49:58;23.00;99.90
27540;DHT22;15906;52.046;4.724;2022-07-10T14:52:24;23.00;99.90
27540;DHT22;15906;52.046;4.724;2022-07-10T14:54:53;22.90;99.90
27540;DHT22;15906;52.046;4.724;2022-07-10T14:57:18;22.80;99.90
27540;DHT22;15906;52.046;4.724;2022-07-10T14:59:44;23.00;99.90
27540;DHT22;15906;52.046;4.724;2022-07-10T15:02:09;23.00;99.90
27540;DHT22;15906;52.046;4.724;2022-07-10T15:04:35;23.10;99.90
27540;DHT22;15906;52.046;4.724;2022-07-10T15:07:00;23.30;99.90
27540;DHT22;15906;52.046;4.724;2022-07-10T15:09:26;23.10;99.90
27540;DHT22;15906;52.046;4.724;2022-07-10T15:11:51;23.20;99.90
27540;DHT22;15906;52.046;4.724;2022-07-10T15:14:19;23.10;99.90
27540;DHT22;15906;52.046;4.724;2022-07-10T15:16:44;22.90;99.90
27540;DHT22;15906;52.046;4.724;2022-07-10T15:19:10;22.60;99.90
27540;DHT22;15906;52.046;4.724;2022-07-10T15:21:36;22.70;99.90
27540;DHT22;15906;52.046;4.724;2022-07-10T15:24:02;22.60;99.90
27540;DHT22;15906;52.046;4.724;2022-07-10T15:26:27;22.70;99.90
27540;DHT22;15906;52.046;4.724;2022-07-10T15:28:53;22.60;99.90
27540;DHT22;15906;52.046;4.724;2022-07-10T15:31:20;22.50;99.90
27540;DHT22;15906;52.046;4.724;2022-07-10T15:33:46;22.30;99.90
27540;DHT22;15906;52.046;4.724;2022-07-10T15:36:12;22.00;99.90
27540;DHT22;15906;52.046;4.724;2022-07-10T15:38:38;21.90;99.90
27540;DHT22;15906;52.046;4.724;2022-07-10T15:41:04;22.00;99.90
27540;DHT22;15906;52.046;4.724;2022-07-10T15:43:30;22.00;99.90
27540;DHT22;15906;52.046;4.724;2022-07-10T15:45:56;22.30;99.90
27540;DHT22;15906;52.046;4.724;2022-07-10T15:48:21;22.30;99.90
27540;DHT22;15906;52.046;4.724;2022-07-10T15:50:47;22.40;99.90
27540;DHT22;15906;52.046;4.724;2022-07-10T15:53:13;22.30;99.90
27540;DHT22;15906;52.046;4.724;2022-07-10T15:55:39;22.30;99.90
27540;DHT22;15906;52.046;4.724;2022-07-10T15:58:04;22.40;99.90